Time;durP1;ratioP1;P1;durP2;ratioP2;P2;SDS_P1;SDS_P2;PMS_P1;PMS_P2;Temp;Humidity;BMP_temperature;BMP_pressure;BME280_temperature;BME280_humidity;BME280_pressure;Samples;Min_cycle;Max_cycle;Signal;HPM_P1;HPM_P2
2020/12/16 00:00:11;;;;;;;37.88;26.25;;;;;;;2.92;81.01;100346.30;1797133;79;21206;-72
2020/12/16 00:02:39;;;;;;;41.13;27.62;;;;;;;2.90;81.05;100342.87;1771951;80;21159;-73
2020/12/16 00:05:09;;;;;;;44.55;28.17;;;;;;;2.90;81.17;100348.01;1788321;79;21189;-72
2020/12/16 00:07:38;;;;;;;46.05;28.73;;;;;;;2.92;81.22;100351.02;1783847;79;21168;-72
2020/12/16 00:10:10;;;;;;;52.35;31.87;;;;;;;2.94;81.06;100347.17;1772988;80;21188;-72
2020/12/16 00:12:40;;;;;;;56.18;31.15;;;;;;;2.94;81.07;100352.31;1792844;79;21115;-72
2020/12/16 00:15:08;;;;;;;65.95;32.35;;;;;;;2.93;81.06;100353.16;1792709;79;21124;-72
2020/12/16 00:17:36;;;;;;;52.53;28.77;;;;;;;2.93;80.95;100361.73;1797231;79;21374;-72
2020/12/16 00:20:05;;;;;;;42.93;25.00;;;;;;;2.90;81.05;100360.85;1763287;80;21076;-72
2020/12/16 00:22:37;;;;;;;37.83;24.12;;;;;;;2.89;81.03;100363.84;1771554;79;21575;-73
2020/12/16 00:25:05;;;;;;;38.13;23.32;;;;;;;2.91;81.01;100363.86;1776299;80;21163;-71
2020/12/16 00:27:33;;;;;;;37.35;22.77;;;;;;;2.89;80.99;100357.42;1786072;79;21152;-73
2020/12/16 00:30:01;;;;;;;33.85;20.52;;;;;;;2.89;80.97;100359.99;1771787;81;22440;-71
2020/12/16 00:32:28;;;;;;;35.48;20.92;;;;;;;2.89;80.89;100362.98;1772194;80;21187;-72
2020/12/16 00:34:56;;;;;;;30.62;19.57;;;;;;;2.91;80.95;100370.28;1773320;80;21450;-72
2020/12/16 00:37:23;;;;;;;29.42;19.52;;;;;;;2.92;80.96;100363.00;1772903;80;21068;-71
2020/12/16 00:39:51;;;;;;;34.03;20.97;;;;;;;2.94;80.87;100357.45;1772683;79;21080;-71
2020/12/16 00:42:19;;;;;;;33.55;21.40;;;;;;;2.94;80.90;100362.16;1750162;80;21328;-73
2020/12/16 00:44:47;;;;;;;33.85;21.07;;;;;;;2.95;80.83;100354.88;1771249;80;21063;-72
2020/12/16 00:47:15;;;;;;;36.33;20.12;;;;;;;2.95;80.68;100355.31;1776142;80;21481;-72
2020/12/16 00:49:43;;;;;;;32.50;20.75;;;;;;;2.93;80.67;100349.30;1778462;80;21302;-72
2020/12/16 00:52:10;;;;;;;38.08;27.37;;;;;;;2.93;80.61;100349.30;1793172;79;21132;-72
2020/12/16 00:54:38;;;;;;;44.20;29.70;;;;;;;2.88;80.67;100348.00;1753254;80;21233;-72
2020/12/16 00:57:05;;;;;;;50.78;33.92;;;;;;;2.88;80.92;100352.28;1797109;79;22201;-72
2020/12/16 00:59:33;;;;;;;49.05;33.45;;;;;;;2.88;80.88;100344.56;1795953;79;21508;-71
2020/12/16 01:02:04;;;;;;;51.70;34.60;;;;;;;2.87;81.05;100341.14;1748442;80;21148;-71
2020/12/16 01:04:33;;;;;;;51.02;32.50;;;;;;;2.88;81.00;100342.00;1785389;79;21057;-72
2020/12/16 01:07:01;;;;;;;46.85;32.28;;;;;;;2.87;80.98;100346.70;1766195;80;21796;-72
2020/12/16 01:09:29;;;;;;;46.15;30.77;;;;;;;2.87;81.15;100345.42;1761704;80;21234;-73
2020/12/16 01:11:57;;;;;;;45.92;31.52;;;;;;;2.87;81.26;100338.58;1778959;80;21234;-72
2020/12/16 01:14:25;;;;;;;36.42;24.50;;;;;;;2.90;81.29;100338.59;1836621;77;21158;-72
2020/12/16 01:16:54;;;;;;;28.27;20.25;;;;;;;2.93;81.12;100336.03;1791463;79;21084;-72
2020/12/16 01:19:23;;;;;;;33.73;23.52;;;;;;;2.95;81.01;100334.75;1740110;80;22110;-72
2020/12/16 01:21:51;;;;;;;38.15;22.73;;;;;;;2.95;80.85;100329.61;1769063;80;21102;-72
2020/12/16 01:24:19;;;;;;;33.53;19.57;;;;;;;2.93;80.77;100331.32;1771757;79;21139;-72
2020/12/16 01:26:48;;;;;;;34.15;19.95;;;;;;;2.91;80.73;100329.17;1771737;80;21159;-72
2020/12/16 01:29:18;;;;;;;33.02;20.15;;;;;;;2.89;80.76;100323.16;1771234;80;21448;-72
2020/12/16 01:31:48;;;;;;;33.33;20.68;;;;;;;2.90;80.85;100325.73;1834495;77;21472;-72
2020/12/16 01:34:26;;;;;;;29.87;18.87;;;;;;;2.96;80.85;100321.05;1873605;75;22644;-73
2020/12/16 01:36:56;;;;;;;36.13;20.75;;;;;;;2.89;80.71;100314.17;1841101;77;21060;-73
2020/12/16 01:39:24;;;;;;;40.73;22.15;;;;;;;2.88;80.71;100312.45;1841579;78;21352;-73
2020/12/16 01:41:52;;;;;;;42.67;21.35;;;;;;;2.88;80.68;100309.88;1841619;77;21092;-73
2020/12/16 01:44:25;;;;;;;44.15;24.32;;;;;;;2.89;80.67;100306.46;1841147;78;21018;-73
2020/12/16 01:46:56;;;;;;;36.70;21.48;;;;;;;2.89;80.61;100308.61;1841325;78;21466;-73
2020/12/16 01:49:25;;;;;;;37.20;21.82;;;;;;;2.88;80.63;100295.75;1841586;78;21041;-73
2020/12/16 01:51:56;;;;;;;34.18;21.37;;;;;;;2.88;80.78;100300.47;1841586;78;21360;-73
2020/12/16 01:54:24;;;;;;;31.65;19.92;;;;;;;2.89;80.70;100298.75;1841610;78;20907;-73
2020/12/16 01:56:57;;;;;;;29.45;18.52;;;;;;;2.89;80.64;100294.90;1841536;77;20931;-74
2020/12/16 01:59:35;;;;;;;24.52;16.55;;;;;;;2.89;80.63;100299.61;1839307;78;21073;-75
2020/12/16 02:02:03;;;;;;;21.87;14.63;;;;;;;2.90;80.53;100297.48;1841441;77;21038;-74
2020/12/16 02:04:39;;;;;;;22.25;15.08;;;;;;;2.92;80.46;100298.77;1841523;78;21348;-73
2020/12/16 02:07:08;;;;;;;17.52;13.32;;;;;;;2.92;80.49;100294.91;1840693;78;21521;-73
2020/12/16 02:09:44;;;;;;;17.80;13.18;;;;;;;2.93;80.23;100296.20;1811169;78;21489;-72
2020/12/16 02:12:24;;;;;;;20.92;13.48;;;;;;;2.95;80.08;100299.64;1841536;78;21100;-73
2020/12/16 02:14:51;;;;;;;16.67;12.05;;;;;;;2.92;79.97;100297.48;1801226;79;21536;-72
2020/12/16 02:17:20;;;;;;;22.65;15.15;;;;;;;2.90;79.88;100293.63;1808517;79;21372;-73
2020/12/16 02:20:00;;;;;;;22.10;16.90;;;;;;;2.89;79.81;100305.17;1808354;79;21160;-72
2020/12/16 02:22:29;;;;;;;21.65;16.15;;;;;;;2.86;79.97;100296.17;1808523;78;21157;-72
2020/12/16 02:25:07;;;;;;;16.37;12.20;;;;;;;2.83;79.98;100297.02;1808490;79;21141;-72
2020/12/16 02:27:39;;;;;;;15.23;10.43;;;;;;;2.79;79.96;100294.46;1808480;79;21073;-72
2020/12/16 02:30:11;;;;;;;13.85;10.30;;;;;;;2.71;79.77;100300.42;1808413;78;21191;-72
2020/12/16 02:32:58;;;;;;;12.50;8.90;;;;;;;2.61;79.86;100298.66;1806193;77;21152;-71
2020/12/16 02:35:28;;;;;;;9.68;7.80;;;;;;;2.57;80.12;100299.52;1800599;79;21202;-71
2020/12/16 02:37:57;;;;;;;11.15;8.43;;;;;;;2.55;79.98;100302.50;1799873;78;21045;-73
2020/12/16 02:40:26;;;;;;;10.90;8.43;;;;;;;2.50;80.22;100299.05;1800567;79;21465;-71
2020/12/16 02:42:54;;;;;;;9.45;7.78;;;;;;;2.51;80.30;100296.91;1783680;78;22432;-71
2020/12/16 02:45:22;;;;;;;6.03;5.40;;;;;;;2.52;80.48;100292.21;1800028;79;21069;-71
2020/12/16 02:48:08;;;;;;;6.53;5.92;;;;;;;2.60;80.00;100297.39;1827508;76;27731;-73
2020/12/16 02:50:38;;;;;;;4.92;4.42;;;;;;;2.63;79.68;100291.81;1815433;79;21133;-72
2020/12/16 02:53:05;;;;;;;5.87;5.05;;;;;;;2.70;79.33;100295.27;1815440;77;22043;-72
2020/12/16 02:55:35;;;;;;;5.90;5.30;;;;;;;2.72;79.11;100294.86;1810117;79;21574;-72
2020/12/16 02:58:04;;;;;;;7.28;5.85;;;;;;;2.75;79.03;100293.16;1815392;77;21023;-72
2020/12/16 03:00:32;;;;;;;8.28;6.55;;;;;;;2.77;79.00;100294.45;1815397;79;20932;-73
2020/12/16 03:03:13;;;;;;;8.73;7.05;;;;;;;2.81;78.92;100300.43;1764300;79;21038;-72
2020/12/16 03:05:43;;;;;;;7.22;6.37;;;;;;;2.83;78.93;100302.16;1815338;77;21066;-73
2020/12/16 03:08:13;;;;;;;6.62;5.92;;;;;;;2.85;78.89;100303.45;1814598;79;20896;-72
2020/12/16 03:10:47;;;;;;;7.72;6.17;;;;;;;2.87;78.87;100305.17;1814360;79;21558;-72
2020/12/16 03:13:15;;;;;;;7.58;6.20;;;;;;;2.89;78.71;100308.61;1801831;78;21130;-73
2020/12/16 03:15:44;;;;;;;7.35;5.33;;;;;;;2.93;78.51;100310.34;1783295;79;21054;-73
2020/12/16 03:18:12;;;;;;;6.20;5.30;;;;;;;2.91;78.25;100301.77;1748851;82;22248;-73
2020/12/16 03:20:40;;;;;;;5.95;4.87;;;;;;;2.88;78.22;100308.17;1748764;82;21077;-72
2020/12/16 03:23:09;;;;;;;5.62;4.80;;;;;;;2.87;78.11;100309.45;1748866;81;21074;-73
2020/12/16 03:25:56;;;;;;;6.15;4.95;;;;;;;2.86;78.05;100303.88;1748732;82;21140;-73
2020/12/16 03:28:49;;;;;;;6.17;4.83;;;;;;;2.88;78.00;100308.17;1890052;76;22798;-72
2020/12/16 03:31:21;;;;;;;5.87;4.65;;;;;;;2.79;77.90;100311.16;1856595;77;21048;-72
2020/12/16 03:33:51;;;;;;;5.67;5.17;;;;;;;2.75;78.13;100309.00;1856764;77;21382;-73
2020/12/16 03:36:37;;;;;;;5.50;3.95;;;;;;;2.75;78.19;100310.28;1860910;77;20997;-73
2020/12/16 03:39:07;;;;;;;5.05;4.55;;;;;;;2.72;77.94;100317.97;1827772;77;21112;-72
2020/12/16 03:41:34;;;;;;;5.40;4.90;;;;;;;2.69;77.98;100314.10;1860956;77;20903;-73
2020/12/16 03:44:03;;;;;;;5.30;4.80;;;;;;;2.69;78.15;100317.95;1860999;77;21489;-73
2020/12/16 03:46:33;;;;;;;5.60;4.42;;;;;;;2.74;78.14;100317.55;1860158;77;21801;-73
2020/12/16 03:49:01;;;;;;;9.30;5.80;;;;;;;2.79;78.02;100313.73;1860898;77;20934;-72
2020/12/16 03:51:31;;;;;;;4.67;4.10;;;;;;;2.79;77.77;100321.01;1860799;77;20949;-72
2020/12/16 03:54:00;;;;;;;11.35;4.65;;;;;;;2.75;78.03;100325.70;1860945;77;21076;-73
2020/12/16 03:56:47;;;;;;;5.50;4.42;;;;;;;2.74;78.12;100325.27;1860977;77;21131;-72
2020/12/16 03:59:22;;;;;;;4.53;4.12;;;;;;;2.75;78.14;100325.27;1858039;77;21975;-72
2020/12/16 04:02:08;;;;;;;4.28;3.67;;;;;;;2.75;78.10;100326.98;1860864;77;21182;-72
2020/12/16 04:04:38;;;;;;;3.77;3.37;;;;;;;2.71;77.90;100323.53;1828556;77;21113;-73
2020/12/16 04:07:07;;;;;;;5.08;3.15;;;;;;;2.67;77.88;100324.80;1860942;77;21584;-72
2020/12/16 04:09:37;;;;;;;4.12;3.62;;;;;;;2.69;77.91;100321.81;1860011;77;21133;-73
2020/12/16 04:12:06;;;;;;;4.25;3.85;;;;;;;2.73;77.75;100320.55;1860903;77;21360;-72
2020/12/16 04:14:36;;;;;;;4.50;3.70;;;;;;;2.76;77.78;100326.13;1880946;76;21552;-74
2020/12/16 04:17:05;;;;;;;5.20;4.60;;;;;;;2.79;77.80;100326.57;1807075;79;21139;-73
2020/12/16 04:19:40;;;;;;;5.15;4.28;;;;;;;2.74;77.71;100322.27;1803868;79;21052;-73
2020/12/16 04:22:07;;;;;;;8.03;5.45;;;;;;;2.74;77.80;100325.27;1822825;78;21099;-73
2020/12/16 04:24:37;;;;;;;4.22;3.72;;;;;;;2.70;77.63;100323.53;1807068;79;21369;-73
2020/12/16 04:27:09;;;;;;;6.85;3.40;;;;;;;2.68;77.46;100333.80;1821898;78;21235;-73
2020/12/16 04:29:38;;;;;;;5.33;3.02;;;;;;;2.67;77.42;100338.92;1796976;79;21530;-73
2020/12/16 04:32:07;;;;;;;4.10;3.42;;;;;;;2.63;77.41;100339.75;1811610;79;21087;-73
2020/12/16 04:34:36;;;;;;;7.58;3.72;;;;;;;2.56;77.61;100347.88;1796870;79;21113;-73
2020/12/16 04:37:05;;;;;;;7.05;3.65;;;;;;;2.57;77.85;100340.61;1811607;79;21354;-72
2020/12/16 04:39:34;;;;;;;3.80;3.50;;;;;;;2.61;77.83;100343.59;1796331;79;21503;-73
2020/12/16 04:42:03;;;;;;;4.87;4.15;;;;;;;2.62;77.87;100344.45;1811020;79;21060;-72
2020/12/16 04:44:33;;;;;;;5.83;4.58;;;;;;;2.61;77.97;100344.88;1796419;79;21074;-73
2020/12/16 04:47:03;;;;;;;5.60;4.12;;;;;;;2.63;78.17;100341.03;1810977;79;21064;-72
2020/12/16 04:49:32;;;;;;;4.10;3.15;;;;;;;2.64;77.93;100343.61;1796264;79;21480;-73
2020/12/16 04:52:00;;;;;;;5.03;3.67;;;;;;;2.63;77.93;100343.61;1812535;79;21080;-73
2020/12/16 04:54:35;;;;;;;3.98;3.52;;;;;;;2.60;78.05;100347.47;1794028;79;21649;-72
2020/12/16 04:57:06;;;;;;;6.30;4.33;;;;;;;2.61;78.13;100345.30;1786561;79;21064;-73
2020/12/16 04:59:35;;;;;;;5.55;4.00;;;;;;;2.65;78.00;100350.47;1795905;79;21182;-72
2020/12/16 05:02:05;;;;;;;3.52;3.22;;;;;;;2.66;77.67;100349.62;1811045;79;21442;-73
2020/12/16 05:04:35;;;;;;;4.97;3.98;;;;;;;2.62;77.41;100346.59;1792395;79;21122;-72
2020/12/16 05:07:04;;;;;;;4.08;3.50;;;;;;;2.58;77.57;100346.60;1811063;79;21060;-73
2020/12/16 05:09:32;;;;;;;10.85;3.30;;;;;;;2.58;77.50;100344.89;1796293;79;21046;-72
2020/12/16 05:12:00;;;;;;;4.05;3.58;;;;;;;2.60;77.56;100341.05;1811036;79;21056;-72
2020/12/16 05:14:27;;;;;;;4.37;3.67;;;;;;;2.61;77.57;100343.59;1796329;78;21973;-72
2020/12/16 05:17:02;;;;;;;4.15;3.50;;;;;;;2.63;77.61;100339.33;1811012;79;21607;-73
2020/12/16 05:19:42;;;;;;;4.75;4.25;;;;;;;2.68;77.50;100335.50;1796334;79;21070;-71
2020/12/16 05:22:28;;;;;;;7.15;5.30;;;;;;;2.69;77.40;100343.22;1811047;79;21139;-71
2020/12/16 05:25:00;;;;;;;9.03;5.12;;;;;;;2.69;77.35;100338.50;1796336;79;21125;-72
2020/12/16 05:27:30;;;;;;;8.77;5.60;;;;;;;2.66;77.32;100337.20;1811465;79;22090;-72
2020/12/16 05:30:06;;;;;;;10.78;7.15;;;;;;;2.58;77.20;100338.47;1806377;79;21128;-72
2020/12/16 05:32:35;;;;;;;7.12;6.42;;;;;;;2.48;77.38;100337.12;1822220;78;21040;-72
2020/12/16 05:35:24;;;;;;;7.60;6.58;;;;;;;2.41;77.52;100343.92;1822258;78;21491;-73
2020/12/16 05:37:59;;;;;;;8.38;7.58;;;;;;;2.43;77.68;100349.92;1806427;79;21068;-73
2020/12/16 05:40:28;;;;;;;10.65;9.10;;;;;;;2.44;77.70;100352.93;1768299;78;22233;-73
2020/12/16 05:42:56;;;;;;;15.08;10.00;;;;;;;2.45;77.76;100349.52;1806364;79;21131;-73
2020/12/16 05:45:27;;;;;;;12.65;9.50;;;;;;;2.43;77.74;100346.94;1822250;78;21461;-72
2020/12/16 05:48:08;;;;;;;18.30;10.08;;;;;;;2.38;77.79;100339.66;1822153;78;21127;-72
2020/12/16 05:50:42;;;;;;;12.65;9.98;;;;;;;2.35;77.95;100339.63;1822162;78;21135;-73
2020/12/16 05:53:24;;;;;;;17.50;11.18;;;;;;;2.32;77.99;100341.32;1806555;79;22666;-72
2020/12/16 05:55:57;;;;;;;21.15;14.53;;;;;;;2.30;78.08;100341.73;1822076;78;21100;-72
2020/12/16 05:58:31;;;;;;;21.77;14.28;;;;;;;2.25;78.21;100342.98;1822027;78;21163;-71
2020/12/16 06:01:05;;;;;;;19.55;14.65;;;;;;;2.24;78.34;100339.13;1798485;78;21171;-74
2020/12/16 06:03:37;;;;;;;20.35;15.15;;;;;;;2.21;78.36;100338.67;1788192;80;21466;-73
2020/12/16 06:06:08;;;;;;;18.67;13.88;;;;;;;2.21;78.43;100346.38;1787989;80;21586;-72
2020/12/16 06:12:29;;;;;;;27.30;16.20;;;;;;;2.21;78.45;100345.09;1785686;79;21777;-75
2020/12/16 06:15:09;;;;;;;30.43;16.30;;;;;;;2.22;78.68;100343.38;1788974;80;21149;-73
2020/12/16 06:17:45;;;;;;;29.07;16.32;;;;;;;2.21;78.73;100351.50;1787812;80;21133;-73
2020/12/16 06:20:17;;;;;;;36.17;18.10;;;;;;;2.19;78.68;100352.37;1787261;80;22275;-72
2020/12/16 06:22:47;;;;;;;30.67;16.37;;;;;;;2.13;78.65;100353.61;1787795;80;21160;-72
2020/12/16 06:25:17;;;;;;;16.67;13.70;;;;;;;2.10;78.79;100355.72;1786351;80;21160;-73
2020/12/16 06:27:50;;;;;;;31.95;13.25;;;;;;;2.09;78.63;100357.86;1787002;80;21562;-70
2020/12/16 06:30:33;;;;;;;19.95;12.80;;;;;;;2.08;78.54;100360.84;1787212;80;21073;-70
2020/12/16 06:33:29;;;;;;;;;;;;;;;2.05;78.61;100356.11;1795910;78;22814;-70
2020/12/16 06:36:01;;;;;;;19.92;13.72;;;;;;;2.07;78.50;100362.11;1786958;79;20660;-71
2020/12/16 06:38:29;;;;;;;26.55;16.12;;;;;;;2.02;78.46;100359.93;1786951;80;21525;-70
2020/12/16 06:40:58;;;;;;;22.85;15.95;;;;;;;2.00;78.71;100364.19;1786735;80;21235;-70
2020/12/16 06:43:40;;;;;;;26.75;15.90;;;;;;;1.97;78.80;100365.48;1785803;78;21180;-70
2020/12/16 06:46:33;;;;;;;16.15;11.18;;;;;;;1.97;78.88;100371.89;1785720;80;21632;-70
2020/12/16 06:49:04;;;;;;;;;;;;;;;1.91;78.78;100373.97;1791494;80;21222;-70
2020/12/16 06:54:41;;;;;;;16.17;11.00;;;;;;;1.94;78.97;100377.85;1886366;76;22740;-71
2020/12/16 06:57:21;;;;;;;19.70;11.20;;;;;;;1.87;78.79;100378.64;1857695;77;21191;-69
2020/12/16 07:00:02;;;;;;;15.30;11.10;;;;;;;1.81;78.86;100379.00;1857754;77;21412;-70
2020/12/16 07:05:37;;;;;;;57.95;33.40;;;;;;;1.80;79.05;100378.14;1863666;75;23282;-70
2020/12/16 07:08:05;;;;;;;30.57;20.97;;;;;;;1.73;79.13;100381.09;1771795;80;21183;-72
2020/12/16 07:10:39;;;;;;;24.43;18.20;;;;;;;1.75;79.17;100382.82;1771472;80;22626;-69
2020/12/16 07:13:17;;;;;;;12.45;9.95;;;;;;;1.71;79.37;100381.50;1768663;80;21010;-70
2020/12/16 07:16:09;;;;;;;13.30;9.65;;;;;;;1.73;79.48;100375.97;1888526;76;22699;-70
2020/12/16 07:18:49;;;;;;;18.07;9.40;;;;;;;1.71;79.49;100385.77;1775379;80;21096;-70
2020/12/16 07:21:21;;;;;;;16.23;9.88;;;;;;;1.74;79.55;100383.24;1849800;77;21347;-71
2020/12/16 07:24:13;;;;;;;15.53;9.98;;;;;;;1.79;79.34;100385.86;1849743;77;20937;-71
2020/12/16 07:26:56;;;;;;;23.85;13.95;;;;;;;1.78;79.31;100377.30;1848780;77;21055;-72
2020/12/16 07:29:32;;;;;;;17.12;12.23;;;;;;;1.79;79.51;100374.31;1849976;77;21610;-72
2020/12/16 07:32:09;;;;;;;14.87;11.70;;;;;;;1.82;79.57;100377.73;1840115;76;21129;-72
2020/12/16 07:34:59;;;;;;;20.23;11.60;;;;;;;1.88;79.54;100379.50;1847890;76;21376;-71
2020/12/16 07:37:30;;;;;;;16.65;10.23;;;;;;;1.91;79.16;100379.53;1846546;76;21172;-72
2020/12/16 07:40:11;;;;;;;25.00;8.08;;;;;;;1.85;79.02;100381.61;1862280;76;21923;-72
2020/12/16 07:42:38;;;;;;;16.10;8.43;;;;;;;1.79;79.00;100380.30;1864571;76;21196;-71
2020/12/16 07:45:10;;;;;;;10.35;7.83;;;;;;;1.74;79.22;100381.96;1865050;76;21145;-71
2020/12/16 07:47:42;;;;;;;22.73;9.40;;;;;;;1.75;79.39;100382.82;1865583;76;21197;-72
2020/12/16 07:50:15;;;;;;;15.63;9.53;;;;;;;1.78;79.42;100388.84;1865425;76;21122;-71
2020/12/16 07:52:44;;;;;;;9.78;8.73;;;;;;;1.78;79.23;100389.27;1835637;76;21613;-71
2020/12/16 07:55:13;;;;;;;17.37;9.13;;;;;;;1.78;79.28;100391.83;1809069;76;21204;-72
2020/12/16 07:57:43;;;;;;;15.60;8.80;;;;;;;1.77;79.34;100394.81;1835551;76;21653;-72
2020/12/16 08:00:11;;;;;;;16.50;10.65;;;;;;;1.80;79.40;100391.42;1866743;76;22719;-71
2020/12/16 08:02:44;;;;;;;17.75;10.68;;;;;;;1.80;79.39;100388.41;1866520;76;21082;-71
2020/12/16 08:05:13;;;;;;;15.03;9.50;;;;;;;1.82;79.40;100393.13;1865541;76;21670;-72
2020/12/16 08:07:41;;;;;;;13.60;9.65;;;;;;;1.78;79.27;100395.25;1865772;76;21146;-70
2020/12/16 08:10:10;;;;;;;13.15;7.87;;;;;;;1.72;79.52;100389.64;1866027;76;21582;-72
2020/12/16 08:12:40;;;;;;;12.18;9.13;;;;;;;1.72;79.46;100391.34;1860943;76;21178;-71
2020/12/16 08:15:17;;;;;;;14.78;9.60;;;;;;;1.76;79.55;100393.09;1801630;78;21626;-71
2020/12/16 08:17:48;;;;;;;17.95;11.28;;;;;;;1.81;79.51;100394.39;1832225;78;21107;-72
2020/12/16 08:20:22;;;;;;;20.02;12.33;;;;;;;1.84;79.69;100399.55;1832117;78;21150;-72
2020/12/16 08:22:59;;;;;;;15.25;9.73;;;;;;;1.92;79.82;100396.64;1831326;78;21134;-71
2020/12/16 08:25:31;;;;;;;12.00;8.80;;;;;;;1.98;79.66;100397.98;1805021;78;21412;-71
2020/12/16 08:28:04;;;;;;;15.18;9.00;;;;;;;2.02;79.30;100391.58;1831774;78;21078;-71
2020/12/16 08:30:30;;;;;;;9.18;7.72;;;;;;;1.98;79.02;100387.72;1831373;78;21635;-71
2020/12/16 08:33:08;;;;;;;13.18;9.05;;;;;;;1.92;79.05;100391.52;1763143;80;21114;-71
2020/12/16 08:35:49;;;;;;;12.25;8.83;;;;;;;1.89;79.20;100387.63;1825101;78;21154;-71
2020/12/16 08:38:29;;;;;;;15.63;10.03;;;;;;;1.85;79.30;100382.89;1824875;78;22034;-71
2020/12/16 08:40:58;;;;;;;22.32;12.65;;;;;;;1.83;79.36;100378.59;1825584;78;21150;-71
2020/12/16 08:43:32;;;;;;;21.37;13.78;;;;;;;1.86;79.50;100381.19;1791571;80;21118;-71
2020/12/16 08:46:10;;;;;;;32.28;18.87;;;;;;;1.87;79.52;100377.78;1792401;80;21078;-71
2020/12/16 08:48:55;;;;;;;17.70;12.50;;;;;;;1.88;79.46;100386.77;1825052;78;21559;-71
2020/12/16 08:51:39;;;;;;;18.20;11.97;;;;;;;1.94;79.63;100384.69;1776728;79;22805;-71
2020/12/16 08:54:09;;;;;;;19.17;12.65;;;;;;;1.93;79.64;100381.69;1749134;82;21143;-72
2020/12/16 08:56:45;;;;;;;24.90;14.28;;;;;;;1.92;79.72;100379.55;1748872;82;21595;-71
2020/12/16 08:59:24;;;;;;;20.88;13.65;;;;;;;1.96;79.71;100389.41;1749506;82;21024;-72
2020/12/16 09:02:14;;;;;;;22.10;11.83;;;;;;;2.01;79.71;100391.14;1749195;82;21041;-71
2020/12/16 09:04:44;;;;;;;17.87;12.03;;;;;;;2.05;79.47;100398.02;1775266;80;21042;-71
2020/12/16 09:07:19;;;;;;;26.37;11.78;;;;;;;2.02;79.22;100401.84;1764907;81;21090;-70
2020/12/16 09:09:54;;;;;;;20.68;11.45;;;;;;;1.97;79.44;100402.25;1661546;85;21393;-71
2020/12/16 09:12:22;;;;;;;24.95;11.45;;;;;;;1.98;79.58;100403.11;1713604;82;21198;-72
2020/12/16 09:14:55;;;;;;;18.67;13.55;;;;;;;1.93;79.55;100405.63;1683422;83;21178;-71
2020/12/16 09:17:24;;;;;;;22.80;13.93;;;;;;;1.89;79.89;100405.16;1683712;84;22552;-72
2020/12/16 09:19:52;;;;;;;24.98;13.70;;;;;;;1.89;79.98;100400.04;1683588;85;21122;-73
2020/12/16 09:22:28;;;;;;;21.60;11.30;;;;;;;1.91;79.92;100409.03;1683325;84;22034;-71
2020/12/16 09:24:58;;;;;;;23.45;12.10;;;;;;;1.92;79.90;100403.91;1683207;85;21265;-75
2020/12/16 09:27:27;;;;;;;17.80;12.20;;;;;;;1.93;79.77;100404.77;1682876;84;21197;-71
2020/12/16 09:29:55;;;;;;;39.78;14.33;;;;;;;1.85;79.90;100402.55;1697334;83;21192;-72
2020/12/16 09:32:29;;;;;;;20.25;13.32;;;;;;;1.82;80.00;100406.37;1714496;83;21132;-71
2020/12/16 09:34:57;;;;;;;26.20;12.10;;;;;;;1.83;80.23;100405.53;1689990;83;21374;-70
2020/12/16 09:37:32;;;;;;;21.55;12.58;;;;;;;1.83;80.20;100401.25;1712449;82;21210;-71
2020/12/16 09:42:58;;;;;;;17.15;11.88;;;;;;;1.83;80.48;100398.69;1886882;76;22689;-71
2020/12/16 09:45:33;;;;;;;33.55;13.58;;;;;;;1.79;80.38;100397.39;1774685;80;21104;-71
2020/12/16 09:48:01;;;;;;;27.55;13.80;;;;;;;1.81;80.41;100400.38;1771748;81;21623;-72
2020/12/16 09:50:32;;;;;;;23.10;13.18;;;;;;;1.85;80.27;100399.98;1771812;80;21142;-72
2020/12/16 09:53:06;;;;;;;33.02;12.78;;;;;;;1.88;80.23;100394.89;1762377;81;21191;-74
2020/12/16 09:55:39;;;;;;;29.70;11.55;;;;;;;1.88;80.16;100390.63;1774489;80;21474;-72
2020/12/16 09:58:10;;;;;;;30.88;12.73;;;;;;;1.88;80.02;100382.92;1756492;80;21178;-73
2020/12/16 10:00:44;;;;;;;18.12;12.53;;;;;;;1.80;80.11;100379.42;1770673;79;21414;-74
2020/12/16 10:03:18;;;;;;;28.75;13.43;;;;;;;1.74;80.37;100379.39;1771068;80;21198;-72
2020/12/16 10:05:46;;;;;;;24.90;11.73;;;;;;;1.76;80.66;100373.00;1714070;82;21757;-71
2020/12/16 10:08:16;;;;;;;22.58;12.23;;;;;;;1.72;80.41;100370.41;1771742;80;21198;-73
2020/12/16 10:10:45;;;;;;;20.95;11.55;;;;;;;1.68;80.56;100367.79;1815618;79;21154;-74
2020/12/16 10:13:14;;;;;;;16.32;11.08;;;;;;;1.65;80.75;100363.91;1813137;79;21369;-74
2020/12/16 10:15:42;;;;;;;19.07;10.93;;;;;;;1.67;80.97;100360.52;1813612;79;21624;-73
2020/12/16 10:18:10;;;;;;;29.30;15.95;;;;;;;1.70;80.96;100359.69;1813138;77;21171;-74
2020/12/16 10:20:38;;;;;;;16.10;13.13;;;;;;;1.71;80.82;100362.69;1813295;79;22356;-74
2020/12/16 10:23:06;;;;;;;21.85;12.75;;;;;;;1.67;80.89;100355.81;1816487;78;21246;-74
2020/12/16 10:25:34;;;;;;;20.85;11.22;;;;;;;1.68;81.12;100357.11;1818548;78;21460;-74
2020/12/16 10:28:10;;;;;;;19.10;10.40;;;;;;;1.66;80.93;100353.67;1818301;78;21171;-75
2020/12/16 10:30:40;;;;;;;17.30;9.50;;;;;;;1.66;80.88;100351.53;1820525;77;21052;-75
2020/12/16 10:33:09;;;;;;;20.02;10.05;;;;;;;1.65;80.59;100347.25;1818553;78;21099;-75
2020/12/16 10:35:45;;;;;;;15.90;9.90;;;;;;;1.65;80.74;100356.22;1818648;78;21671;-73
2020/12/16 10:38:15;;;;;;;;;;;;;;;1.61;80.72;100350.20;1824311;78;21571;-73
2020/12/16 10:40:48;;;;;;;22.15;12.18;;;;;;;1.57;80.81;100351.47;1820939;77;20494;-75
2020/12/16 10:43:17;;;;;;;17.73;11.70;;;;;;;1.52;81.01;100351.42;1830721;78;21583;-74
2020/12/16 10:45:48;;;;;;;14.90;9.95;;;;;;;1.51;81.39;100349.70;1830642;77;21102;-74
2020/12/16 10:48:15;;;;;;;16.67;12.30;;;;;;;1.59;81.82;100348.50;1830601;77;21122;-74
2020/12/16 10:50:43;;;;;;;21.35;11.70;;;;;;;1.60;81.79;100339.51;1830621;77;21373;-75
2020/12/16 10:53:11;;;;;;;27.70;12.20;;;;;;;1.61;81.88;100336.52;1830227;77;20913;-75
2020/12/16 10:55:39;;;;;;;31.30;12.05;;;;;;;1.65;81.91;100336.56;1829408;77;21540;-74
2020/12/16 10:58:06;;;;;;;27.37;9.25;;;;;;;1.68;81.94;100330.19;1829974;78;21091;-74
2020/12/16 11:00:34;;;;;;;23.70;9.20;;;;;;;1.74;81.55;100326.82;1830079;77;21452;-75
2020/12/16 11:03:02;;;;;;;21.20;10.40;;;;;;;1.72;81.25;100325.95;1829972;78;21192;-74
2020/12/16 11:05:31;;;;;;;19.57;9.90;;;;;;;1.72;81.34;100323.38;1831480;76;21122;-71
2020/12/16 11:07:59;;;;;;;20.48;9.10;;;;;;;1.72;81.12;100316.97;1851282;77;21154;-73
2020/12/16 11:10:28;;;;;;;27.35;9.95;;;;;;;1.70;81.14;100320.80;1848343;77;21111;-73
2020/12/16 11:12:56;;;;;;;19.57;10.03;;;;;;;1.68;80.99;100313.52;1847540;77;21118;-79
2020/12/16 11:15:25;;;;;;;27.75;12.28;;;;;;;1.66;81.18;100311.36;1854709;77;22495;-79
2020/12/16 11:17:53;;;;;;;17.65;9.53;;;;;;;1.69;81.29;100311.39;1856730;76;21150;-73
2020/12/16 11:20:21;;;;;;;12.20;9.65;;;;;;;1.69;81.22;100313.09;1857134;76;21239;-79
2020/12/16 11:22:48;;;;;;;13.80;9.95;;;;;;;1.71;81.46;100317.39;1857372;76;21138;-79
2020/12/16 11:25:17;;;;;;;15.35;9.53;;;;;;;1.77;81.23;100306.75;1839780;77;21594;-80
2020/12/16 11:27:45;;;;;;;11.05;9.65;;;;;;;1.72;81.21;100305.01;1801487;76;21186;-77
2020/12/16 11:30:13;;;;;;;16.70;9.30;;;;;;;1.70;81.21;100307.98;1826374;76;21193;-73
2020/12/16 11:32:41;;;;;;;14.80;10.23;;;;;;;1.65;81.25;100303.66;1839584;76;21207;-71
2020/12/16 11:35:09;;;;;;;18.32;9.85;;;;;;;1.61;81.46;100311.73;1840686;77;21182;-75
2020/12/16 11:37:39;;;;;;;11.97;9.93;;;;;;;1.57;81.68;100308.74;1840332;77;21210;-75
2020/12/16 11:40:07;;;;;;;15.45;10.13;;;;;;;1.56;81.71;100307.45;1810548;78;21898;-74
2020/12/16 11:42:35;;;;;;;22.45;11.73;;;;;;;1.56;82.11;100311.30;1805879;79;21187;-77
2020/12/16 11:45:06;;;;;;;13.35;10.45;;;;;;;1.62;82.13;100308.33;1753957;81;21175;-71
2020/12/16 11:47:34;;;;;;;11.65;8.38;;;;;;;1.65;82.17;100317.34;1748441;81;21249;-72
2020/12/16 11:50:07;;;;;;;12.37;9.73;;;;;;;1.70;81.95;100316.95;1744608;81;21649;-73
2020/12/16 11:52:35;;;;;;;18.43;12.47;;;;;;;1.67;81.81;100311.80;1750759;81;21645;-74
2020/12/16 11:55:04;;;;;;;16.80;10.40;;;;;;;1.66;81.96;100313.06;1768826;81;22259;-72
2020/12/16 11:57:36;;;;;;;13.10;10.72;;;;;;;1.64;81.90;100309.20;1777060;80;21116;-77